createdAt,value
2019-03-23T00:01:18.886Z,6.53
2019-03-23T00:06:30.817Z,5.13
2019-03-23T00:11:33.674Z,6.00
2019-03-23T00:16:40.065Z,6.30
2019-03-23T00:21:46.494Z,6.43
2019-03-23T00:26:52.781Z,6.10
2019-03-23T00:31:59.566Z,6.50
2019-03-23T00:37:05.572Z,6.30
2019-03-23T00:42:11.788Z,6.53
2019-03-23T00:47:17.965Z,6.10
2019-03-23T00:52:23.870Z,6.23
2019-03-23T00:57:29.661Z,6.40
2019-03-23T01:02:35.578Z,6.47
2019-03-23T01:07:41.427Z,5.90
2019-03-23T01:12:48.339Z,6.40
2019-03-23T01:17:54.191Z,6.60
2019-03-23T01:23:00.155Z,6.30
2019-03-23T01:28:06.016Z,6.27
2019-03-23T01:33:11.891Z,6.30
2019-03-23T01:38:17.743Z,6.40
2019-03-23T01:43:23.603Z,6.63
2019-03-23T01:48:29.558Z,6.80
2019-03-23T01:53:35.407Z,6.73
2019-03-23T01:58:41.262Z,6.63
2019-03-23T02:03:47.111Z,6.30
2019-03-23T02:08:53.192Z,6.70
2019-03-23T02:13:59.056Z,6.43
2019-03-23T02:19:04.987Z,6.17
2019-03-23T02:24:10.834Z,6.57
2019-03-23T02:29:16.687Z,6.87
2019-03-23T02:34:22.574Z,5.77
2019-03-23T02:39:28.410Z,6.27
2019-03-23T02:44:34.569Z,5.93
2019-03-23T02:49:40.447Z,6.63
2019-03-23T02:54:46.297Z,6.70
2019-03-23T02:59:52.173Z,6.43
2019-03-23T03:04:58.081Z,6.73
2019-03-23T03:10:04.257Z,6.43
2019-03-23T03:15:10.448Z,6.60
2019-03-23T03:20:16.337Z,6.60
2019-03-23T03:25:22.192Z,7.03
2019-03-23T03:30:28.052Z,6.70
2019-03-23T03:35:33.898Z,6.73
2019-03-23T03:40:40.296Z,7.33
2019-03-23T03:45:46.124Z,7.00
2019-03-23T03:50:52.020Z,6.80
2019-03-23T03:55:57.876Z,6.47
2019-03-23T04:01:03.772Z,6.50
2019-03-23T04:06:09.625Z,7.10
2019-03-23T04:11:15.469Z,6.67
2019-03-23T04:16:21.315Z,7.30
2019-03-23T04:21:27.157Z,7.13
2019-03-23T04:26:33.015Z,8.27
2019-03-23T04:31:38.903Z,7.43
2019-03-23T04:36:44.775Z,7.50
2019-03-23T04:41:50.608Z,7.40
2019-03-23T04:46:56.436Z,8.23
2019-03-23T04:52:02.280Z,8.43
2019-03-23T04:57:08.118Z,8.40
2019-03-23T05:02:13.951Z,9.00
2019-03-23T05:07:19.802Z,8.63
2019-03-23T05:12:25.621Z,9.23
2019-03-23T05:17:31.480Z,10.60
2019-03-23T05:22:37.322Z,10.47
2019-03-23T05:27:43.279Z,9.80
2019-03-23T05:32:49.182Z,9.87
2019-03-23T05:37:55.147Z,10.17
2019-03-23T05:43:01.035Z,13.80
2019-03-23T05:48:06.867Z,9.90
2019-03-23T05:53:12.711Z,9.33
2019-03-23T05:58:18.559Z,9.03
2019-03-23T06:03:24.440Z,9.57
2019-03-23T06:08:31.366Z,10.23
2019-03-23T06:13:37.237Z,9.10
2019-03-23T06:18:43.100Z,9.50
2019-03-23T06:23:48.959Z,10.23
2019-03-23T06:28:54.856Z,9.53
2019-03-23T06:34:00.754Z,8.40
2019-03-23T06:39:08.270Z,9.37
2019-03-23T06:44:14.111Z,9.57
2019-03-23T06:49:19.977Z,8.43
2019-03-23T06:54:25.833Z,8.40
2019-03-23T06:59:31.664Z,7.73
2019-03-23T07:04:37.520Z,8.57
2019-03-23T07:09:43.411Z,8.47
2019-03-23T07:14:49.268Z,8.37
2019-03-23T07:19:55.120Z,8.60
2019-03-23T07:25:00.973Z,9.27
2019-03-23T07:30:09.487Z,9.50
2019-03-23T07:35:16.235Z,9.47
2019-03-23T07:40:22.088Z,9.80
2019-03-23T07:45:27.955Z,10.23
2019-03-23T07:50:33.914Z,9.87
2019-03-23T07:55:39.762Z,9.77
2019-03-23T08:00:45.643Z,10.23
2019-03-23T08:05:51.494Z,11.67
2019-03-23T08:10:57.342Z,11.70
2019-03-23T08:16:03.226Z,10.37
2019-03-23T08:21:09.091Z,11.33
2019-03-23T08:26:14.939Z,10.17
2019-03-23T08:31:20.834Z,11.37
2019-03-23T08:36:26.717Z,12.10
2019-03-23T08:41:32.582Z,12.53
2019-03-23T08:46:38.467Z,13.13
2019-03-23T08:51:44.351Z,13.73
2019-03-23T08:56:50.304Z,13.13
2019-03-23T09:01:56.163Z,13.07
2019-03-23T09:07:02.032Z,14.37
2019-03-23T09:12:08.450Z,13.73
2019-03-23T09:17:14.318Z,15.00
2019-03-23T09:22:20.356Z,16.50
2019-03-23T09:27:34.316Z,17.17
2019-03-23T09:32:40.868Z,16.90
2019-03-23T09:37:47.243Z,16.03
2019-03-23T09:42:53.778Z,16.93
2019-03-23T09:48:00.098Z,15.97
2019-03-23T09:53:06.318Z,16.57
2019-03-23T09:58:12.450Z,17.77
2019-03-23T10:03:19.450Z,17.37
2019-03-23T10:08:26.151Z,16.80
2019-03-23T10:13:32.147Z,17.60
2019-03-23T10:18:38.102Z,19.27
2019-03-23T10:23:44.329Z,18.27
2019-03-23T10:28:50.459Z,20.00
2019-03-23T10:33:57.336Z,18.13
2019-03-23T10:39:04.918Z,18.35
2019-03-23T10:44:11.690Z,19.98
2019-03-23T10:49:18.007Z,19.07
2019-03-23T10:54:25.618Z,19.63
2019-03-23T10:59:32.146Z,20.95
2019-03-23T11:04:38.971Z,20.65
2019-03-23T11:09:44.948Z,20.35
2019-03-23T11:14:51.908Z,21.17
2019-03-23T11:19:58.964Z,18.25
2019-03-23T11:25:07.269Z,20.43
2019-03-23T11:30:15.214Z,21.62
2019-03-23T11:35:21.727Z,21.27
2019-03-23T11:40:28.667Z,22.52
2019-03-23T11:45:34.934Z,19.70
2019-03-23T11:50:41.682Z,20.40
2019-03-23T11:55:48.254Z,21.35
2019-03-23T12:00:54.955Z,22.80
2019-03-23T12:06:02.287Z,23.75
2019-03-23T12:11:09.046Z,23.98
2019-03-23T12:16:16.024Z,23.47
2019-03-23T12:21:22.278Z,22.42
2019-03-23T12:26:29.582Z,20.90
2019-03-23T12:31:41.380Z,21.55
2019-03-23T12:36:48.014Z,22.37
2019-03-23T12:41:55.709Z,21.42
2019-03-23T12:47:02.708Z,21.73
2019-03-23T12:52:12.005Z,23.00
2019-03-23T12:57:22.643Z,25.05
2019-03-23T13:02:31.383Z,25.15
2019-03-23T13:07:40.304Z,25.55
2019-03-23T13:12:47.853Z,26.30
2019-03-23T13:17:55.768Z,26.12
2019-03-23T13:23:05.725Z,23.80
2019-03-23T13:28:17.050Z,26.25
2019-03-23T13:33:31.821Z,27.55
2019-03-23T13:38:47.295Z,27.40
2019-03-23T13:43:57.101Z,27.48
2019-03-23T13:49:16.413Z,26.73
2019-03-23T13:54:27.145Z,26.10
2019-03-23T13:59:41.555Z,26.35
2019-03-23T14:04:50.311Z,25.92
2019-03-23T14:09:57.835Z,28.45
2019-03-23T14:15:07.918Z,28.05
2019-03-23T14:20:17.011Z,29.92
2019-03-23T14:25:23.543Z,27.42
2019-03-23T14:30:29.461Z,29.27
2019-03-23T14:35:40.673Z,30.30
2019-03-23T14:40:50.123Z,30.27
2019-03-23T14:46:03.487Z,29.05
2019-03-23T14:51:19.501Z,29.18
2019-03-23T14:56:31.550Z,29.32
2019-03-23T15:01:39.931Z,30.05
2019-03-23T15:06:54.672Z,30.85
2019-03-23T15:12:14.553Z,29.00
2019-03-23T15:17:19.856Z,30.45
2019-03-23T15:22:29.825Z,31.00
2019-03-23T15:27:39.593Z,30.15
2019-03-23T15:32:54.031Z,29.63
2019-03-23T15:38:06.949Z,31.42
2019-03-23T15:43:32.920Z,31.15
2019-03-23T15:48:43.382Z,32.10
2019-03-23T15:53:52.450Z,31.15
2019-03-23T15:59:03.858Z,31.55
2019-03-23T16:04:11.219Z,29.50
2019-03-23T16:09:19.147Z,29.35
2019-03-23T16:14:26.862Z,29.20
2019-03-23T16:19:34.347Z,27.98
2019-03-23T16:24:40.216Z,28.03
2019-03-23T16:29:46.300Z,26.23
2019-03-23T16:34:52.280Z,27.97
2019-03-23T16:39:59.052Z,27.00
2019-03-23T16:45:06.347Z,26.23
2019-03-23T16:50:12.788Z,25.50
2019-03-23T16:55:19.113Z,24.40
2019-03-23T17:00:38.956Z,25.63
2019-03-23T17:05:45.396Z,25.57
2019-03-23T17:10:51.407Z,28.17
2019-03-23T17:15:57.335Z,27.27
2019-03-23T17:21:03.559Z,26.47
2019-03-23T17:26:09.508Z,24.53
2019-03-23T17:31:15.903Z,26.87
2019-03-23T17:36:21.847Z,26.50
2019-03-23T17:41:27.736Z,27.23
2019-03-23T17:46:33.636Z,28.37
2019-03-23T17:51:39.766Z,29.60
2019-03-23T17:56:45.798Z,29.63
2019-03-23T18:01:52.124Z,29.50
2019-03-23T18:06:58.271Z,30.53
2019-03-23T18:12:04.471Z,26.47
2019-03-23T18:17:10.421Z,27.17
2019-03-23T18:22:17.652Z,28.80
2019-03-23T18:27:23.879Z,27.70
2019-03-23T18:32:29.947Z,26.47
2019-03-23T18:37:35.822Z,26.77
2019-03-23T18:42:44.546Z,25.40
2019-03-23T18:47:50.482Z,27.00
2019-03-23T18:52:56.447Z,28.10
2019-03-23T18:58:02.326Z,25.33
2019-03-23T19:03:08.534Z,21.97
2019-03-23T19:08:14.476Z,23.70
2019-03-23T19:13:20.319Z,21.60
2019-03-23T19:18:26.235Z,22.07
2019-03-23T19:23:34.583Z,25.03
2019-03-23T19:28:42.971Z,24.20
2019-03-23T19:33:49.985Z,24.57
2019-03-23T19:38:56.018Z,24.40
2019-03-23T19:44:01.978Z,24.13
2019-03-23T19:49:07.847Z,23.47
2019-03-23T19:54:13.760Z,24.57
2019-03-23T19:59:20.150Z,24.27
2019-03-23T20:04:27.043Z,23.73
2019-03-23T20:09:33.542Z,21.67
2019-03-23T20:14:41.745Z,23.13
2019-03-23T20:19:48.778Z,23.43
2019-03-23T20:24:56.041Z,26.30
2019-03-23T20:30:03.738Z,26.30
2019-03-23T20:35:11.615Z,23.60
2019-03-23T20:40:17.576Z,24.80
2019-03-23T20:45:30.623Z,23.33
2019-03-23T20:50:39.486Z,23.40
2019-03-23T20:55:46.910Z,23.57
2019-03-23T21:00:53.568Z,23.40
2019-03-23T21:05:59.542Z,21.73
2019-03-23T21:11:05.774Z,21.77
2019-03-23T21:16:14.500Z,21.53
2019-03-23T21:21:20.789Z,23.17
2019-03-23T21:26:26.679Z,23.30
2019-03-23T21:31:32.650Z,22.93
2019-03-23T21:36:40.061Z,21.43
2019-03-23T21:41:47.969Z,21.30
2019-03-23T21:46:54.207Z,23.53
2019-03-23T21:52:00.184Z,22.90
2019-03-23T21:57:06.086Z,21.13
2019-03-23T22:02:18.094Z,21.43
2019-03-23T22:07:25.819Z,20.40
2019-03-23T22:12:33.289Z,19.50
2019-03-23T22:17:39.302Z,19.93
2019-03-23T22:22:49.083Z,18.67
2019-03-23T22:27:55.438Z,18.47
2019-03-23T22:33:01.752Z,17.37
2019-03-23T22:38:14.332Z,17.23
2019-03-23T22:43:20.439Z,18.17
2019-03-23T22:48:28.326Z,17.87
2019-03-23T22:53:34.862Z,19.13
2019-03-23T22:58:40.879Z,18.97
2019-03-23T23:03:46.851Z,19.40
2019-03-23T23:08:52.816Z,20.27
2019-03-23T23:13:58.776Z,18.13
2019-03-23T23:19:04.688Z,18.37
2019-03-23T23:24:10.558Z,18.43
2019-03-23T23:29:16.478Z,17.43
2019-03-23T23:34:22.405Z,17.33
2019-03-23T23:39:28.326Z,16.70
2019-03-23T23:44:34.208Z,15.90
2019-03-23T23:49:40.129Z,15.97
2019-03-23T23:54:45.966Z,16.63
2019-03-23T23:59:51.812Z,17.63
